sensor_id;sensor_type;location;lat;lon;timestamp;P1;durP1;ratioP1;P2;durP2;ratioP2
60917;SDS011;46792;38.854;-9.384;2023-02-24T00:01:19;9.23;;;2.63;;
60917;SDS011;46792;38.854;-9.384;2023-02-24T00:03:24;11.07;;;1.90;;
60917;SDS011;46792;38.854;-9.384;2023-02-24T00:05:24;5.35;;;2.03;;
60917;SDS011;46792;38.854;-9.384;2023-02-24T00:07:46;5.35;;;2.30;;
60917;SDS011;46792;38.854;-9.384;2023-02-24T00:10:05;5.10;;;1.52;;
60917;SDS011;46792;38.854;-9.384;2023-02-24T00:12:27;13.85;;;2.17;;
60917;SDS011;46792;38.854;-9.384;2023-02-24T00:14:29;14.10;;;4.93;;
60917;SDS011;46792;38.854;-9.384;2023-02-24T00:16:32;9.93;;;1.92;;
60917;SDS011;46792;38.854;-9.384;2023-02-24T00:18:34;9.82;;;1.98;;
60917;SDS011;46792;38.854;-9.384;2023-02-24T00:20:53;3.25;;;2.08;;
60917;SDS011;46792;38.854;-9.384;2023-02-24T00:22:58;14.30;;;2.88;;
60917;SDS011;46792;38.854;-9.384;2023-02-24T00:24:59;4.30;;;2.85;;
60917;SDS011;46792;38.854;-9.384;2023-02-24T00:27:02;6.82;;;3.08;;
60917;SDS011;46792;38.854;-9.384;2023-02-24T00:29:10;6.28;;;2.40;;
60917;SDS011;46792;38.854;-9.384;2023-02-24T00:31:15;7.45;;;2.53;;
60917;SDS011;46792;38.854;-9.384;2023-02-24T00:33:18;9.98;;;1.85;;
60917;SDS011;46792;38.854;-9.384;2023-02-24T00:35:23;8.82;;;3.08;;
60917;SDS011;46792;38.854;-9.384;2023-02-24T00:37:24;5.20;;;2.53;;
60917;SDS011;46792;38.854;-9.384;2023-02-24T00:39:24;6.50;;;2.20;;
60917;SDS011;46792;38.854;-9.384;2023-02-24T00:41:50;4.07;;;2.13;;
60917;SDS011;46792;38.854;-9.384;2023-02-24T00:43:51;5.65;;;1.80;;
60917;SDS011;46792;38.854;-9.384;2023-02-24T00:45:52;6.57;;;2.33;;
60917;SDS011;46792;38.854;-9.384;2023-02-24T00:47:54;15.50;;;2.38;;
60917;SDS011;46792;38.854;-9.384;2023-02-24T00:49:57;11.98;;;4.68;;
60917;SDS011;46792;38.854;-9.384;2023-02-24T00:52:00;14.45;;;4.47;;
60917;SDS011;46792;38.854;-9.384;2023-02-24T00:54:04;23.65;;;12.70;;
60917;SDS011;46792;38.854;-9.384;2023-02-24T00:56:06;19.73;;;9.98;;
60917;SDS011;46792;38.854;-9.384;2023-02-24T01:00:13;11.30;;;5.80;;
60917;SDS011;46792;38.854;-9.384;2023-02-24T01:02:16;16.08;;;9.77;;
60917;SDS011;46792;38.854;-9.384;2023-02-24T01:04:17;18.85;;;7.13;;
60917;SDS011;46792;38.854;-9.384;2023-02-24T01:06:20;13.68;;;6.22;;
60917;SDS011;46792;38.854;-9.384;2023-02-24T01:08:22;15.48;;;6.20;;
60917;SDS011;46792;38.854;-9.384;2023-02-24T01:10:23;14.93;;;6.32;;
60917;SDS011;46792;38.854;-9.384;2023-02-24T01:12:27;11.00;;;4.32;;
60917;SDS011;46792;38.854;-9.384;2023-02-24T01:14:37;21.40;;;9.25;;
60917;SDS011;46792;38.854;-9.384;2023-02-24T01:16:39;9.02;;;4.93;;
60917;SDS011;46792;38.854;-9.384;2023-02-24T01:18:41;8.93;;;3.78;;
60917;SDS011;46792;38.854;-9.384;2023-02-24T01:20:44;10.88;;;3.55;;
60917;SDS011;46792;38.854;-9.384;2023-02-24T01:22:47;16.35;;;7.55;;
60917;SDS011;46792;38.854;-9.384;2023-02-24T01:24:49;10.25;;;4.97;;
60917;SDS011;46792;38.854;-9.384;2023-02-24T01:26:50;9.57;;;5.45;;
60917;SDS011;46792;38.854;-9.384;2023-02-24T01:28:52;17.35;;;5.50;;
60917;SDS011;46792;38.854;-9.384;2023-02-24T01:30:59;10.00;;;3.15;;
60917;SDS011;46792;38.854;-9.384;2023-02-24T01:33:01;9.25;;;4.72;;
60917;SDS011;46792;38.854;-9.384;2023-02-24T01:35:02;5.50;;;3.90;;
60917;SDS011;46792;38.854;-9.384;2023-02-24T01:37:03;9.00;;;3.67;;
60917;SDS011;46792;38.854;-9.384;2023-02-24T01:39:04;9.15;;;3.63;;
60917;SDS011;46792;38.854;-9.384;2023-02-24T01:41:06;14.15;;;3.00;;
60917;SDS011;46792;38.854;-9.384;2023-02-24T01:43:12;10.48;;;4.75;;
60917;SDS011;46792;38.854;-9.384;2023-02-24T01:45:15;10.60;;;5.72;;
60917;SDS011;46792;38.854;-9.384;2023-02-24T01:47:21;6.43;;;3.28;;
60917;SDS011;46792;38.854;-9.384;2023-02-24T01:49:28;14.20;;;6.28;;
60917;SDS011;46792;38.854;-9.384;2023-02-24T01:51:34;10.40;;;4.70;;
60917;SDS011;46792;38.854;-9.384;2023-02-24T01:53:38;7.82;;;2.50;;
60917;SDS011;46792;38.854;-9.384;2023-02-24T01:55:43;5.32;;;1.55;;
60917;SDS011;46792;38.854;-9.384;2023-02-24T01:57:50;8.25;;;2.65;;
60917;SDS011;46792;38.854;-9.384;2023-02-24T01:59:53;6.72;;;1.65;;
60917;SDS011;46792;38.854;-9.384;2023-02-24T02:02:01;8.60;;;1.90;;
60917;SDS011;46792;38.854;-9.384;2023-02-24T02:04:26;5.00;;;1.42;;
60917;SDS011;46792;38.854;-9.384;2023-02-24T02:06:37;3.45;;;1.45;;
60917;SDS011;46792;38.854;-9.384;2023-02-24T02:08:40;8.18;;;3.58;;
60917;SDS011;46792;38.854;-9.384;2023-02-24T02:10:45;6.18;;;3.83;;
60917;SDS011;46792;38.854;-9.384;2023-02-24T02:13:04;3.70;;;2.50;;
60917;SDS011;46792;38.854;-9.384;2023-02-24T02:15:24;7.40;;;3.75;;
60917;SDS011;46792;38.854;-9.384;2023-02-24T02:23:00;7.80;;;3.85;;
60917;SDS011;46792;38.854;-9.384;2023-02-24T02:27:37;13.40;;;7.65;;
60917;SDS011;46792;38.854;-9.384;2023-02-24T02:30:01;17.55;;;6.10;;
60917;SDS011;46792;38.854;-9.384;2023-02-24T02:49:11;13.85;;;4.13;;
60917;SDS011;46792;38.854;-9.384;2023-02-24T02:51:20;16.10;;;3.13;;
60917;SDS011;46792;38.854;-9.384;2023-02-24T02:53:32;8.52;;;4.35;;
60917;SDS011;46792;38.854;-9.384;2023-02-24T02:56:07;21.15;;;7.47;;
60917;SDS011;46792;38.854;-9.384;2023-02-24T02:58:15;13.05;;;5.63;;
60917;SDS011;46792;38.854;-9.384;2023-02-24T03:05:50;18.83;;;7.00;;
60917;SDS011;46792;38.854;-9.384;2023-02-24T03:08:10;14.52;;;5.78;;
60917;SDS011;46792;38.854;-9.384;2023-02-24T03:10:16;4.28;;;2.33;;
60917;SDS011;46792;38.854;-9.384;2023-02-24T03:12:22;2.75;;;1.75;;
60917;SDS011;46792;38.854;-9.384;2023-02-24T03:14:28;7.70;;;2.35;;
60917;SDS011;46792;38.854;-9.384;2023-02-24T03:16:37;2.28;;;1.90;;
60917;SDS011;46792;38.854;-9.384;2023-02-24T03:18:49;3.80;;;1.33;;
60917;SDS011;46792;38.854;-9.384;2023-02-24T03:20:59;5.63;;;2.00;;
60917;SDS011;46792;38.854;-9.384;2023-02-24T03:25:38;6.45;;;2.10;;
60917;SDS011;46792;38.854;-9.384;2023-02-24T03:27:48;2.50;;;2.30;;
60917;SDS011;46792;38.854;-9.384;2023-02-24T03:29:54;5.75;;;1.80;;
60917;SDS011;46792;38.854;-9.384;2023-02-24T03:32:01;3.28;;;1.38;;
60917;SDS011;46792;38.854;-9.384;2023-02-24T03:34:12;2.95;;;1.50;;
60917;SDS011;46792;38.854;-9.384;2023-02-24T03:36:19;10.88;;;1.85;;
60917;SDS011;46792;38.854;-9.384;2023-02-24T03:38:20;8.98;;;2.13;;
60917;SDS011;46792;38.854;-9.384;2023-02-24T03:40:24;4.65;;;1.63;;
60917;SDS011;46792;38.854;-9.384;2023-02-24T03:42:33;8.05;;;1.80;;
60917;SDS011;46792;38.854;-9.384;2023-02-24T03:47:13;2.85;;;1.60;;
60917;SDS011;46792;38.854;-9.384;2023-02-24T03:49:16;8.38;;;1.77;;
60917;SDS011;46792;38.854;-9.384;2023-02-24T03:51:20;1.98;;;1.73;;
60917;SDS011;46792;38.854;-9.384;2023-02-24T03:58:22;5.82;;;1.63;;
60917;SDS011;46792;38.854;-9.384;2023-02-24T04:05:25;6.97;;;1.83;;
60917;SDS011;46792;38.854;-9.384;2023-02-24T04:07:45;3.50;;;1.75;;
60917;SDS011;46792;38.854;-9.384;2023-02-24T04:10:16;4.07;;;1.85;;
60917;SDS011;46792;38.854;-9.384;2023-02-24T04:14:33;6.88;;;1.88;;
60917;SDS011;46792;38.854;-9.384;2023-02-24T04:16:55;5.97;;;2.58;;
60917;SDS011;46792;38.854;-9.384;2023-02-24T04:19:10;3.97;;;1.73;;
60917;SDS011;46792;38.854;-9.384;2023-02-24T04:21:16;4.53;;;1.80;;
60917;SDS011;46792;38.854;-9.384;2023-02-24T04:23:24;3.38;;;1.65;;
60917;SDS011;46792;38.854;-9.384;2023-02-24T04:25:29;7.07;;;2.25;;
60917;SDS011;46792;38.854;-9.384;2023-02-24T04:27:31;4.35;;;2.55;;
60917;SDS011;46792;38.854;-9.384;2023-02-24T04:29:46;1.50;;;1.40;;
60917;SDS011;46792;38.854;-9.384;2023-02-24T04:31:56;8.93;;;2.13;;
60917;SDS011;46792;38.854;-9.384;2023-02-24T04:33:59;4.68;;;1.70;;
60917;SDS011;46792;38.854;-9.384;2023-02-24T04:36:08;4.07;;;1.95;;
60917;SDS011;46792;38.854;-9.384;2023-02-24T04:38:12;7.78;;;1.98;;
60917;SDS011;46792;38.854;-9.384;2023-02-24T04:40:14;4.95;;;1.60;;
60917;SDS011;46792;38.854;-9.384;2023-02-24T04:42:17;3.35;;;1.48;;
60917;SDS011;46792;38.854;-9.384;2023-02-24T04:44:20;10.38;;;2.38;;
60917;SDS011;46792;38.854;-9.384;2023-02-24T04:46:21;2.55;;;1.60;;
60917;SDS011;46792;38.854;-9.384;2023-02-24T04:48:22;5.50;;;1.98;;
60917;SDS011;46792;38.854;-9.384;2023-02-24T04:50:24;11.27;;;2.30;;
60917;SDS011;46792;38.854;-9.384;2023-02-24T04:52:25;5.75;;;2.20;;
60917;SDS011;46792;38.854;-9.384;2023-02-24T04:54:25;5.75;;;2.55;;
60917;SDS011;46792;38.854;-9.384;2023-02-24T04:56:28;8.73;;;2.35;;
60917;SDS011;46792;38.854;-9.384;2023-02-24T04:58:29;5.85;;;1.63;;
60917;SDS011;46792;38.854;-9.384;2023-02-24T05:00:30;15.80;;;2.78;;
60917;SDS011;46792;38.854;-9.384;2023-02-24T05:02:34;7.90;;;2.47;;
60917;SDS011;46792;38.854;-9.384;2023-02-24T05:04:37;4.32;;;2.47;;
60917;SDS011;46792;38.854;-9.384;2023-02-24T05:06:38;6.15;;;2.33;;
60917;SDS011;46792;38.854;-9.384;2023-02-24T05:08:44;5.43;;;2.05;;
60917;SDS011;46792;38.854;-9.384;2023-02-24T05:10:45;9.98;;;2.03;;
60917;SDS011;46792;38.854;-9.384;2023-02-24T05:12:46;2.67;;;1.67;;
60917;SDS011;46792;38.854;-9.384;2023-02-24T05:14:47;4.72;;;1.45;;
60917;SDS011;46792;38.854;-9.384;2023-02-24T05:16:48;8.88;;;1.75;;
60917;SDS011;46792;38.854;-9.384;2023-02-24T05:19:11;6.70;;;1.73;;
60917;SDS011;46792;38.854;-9.384;2023-02-24T05:21:50;4.55;;;1.55;;
60917;SDS011;46792;38.854;-9.384;2023-02-24T05:23:51;6.63;;;1.23;;
60917;SDS011;46792;38.854;-9.384;2023-02-24T05:25:53;4.68;;;1.80;;
60917;SDS011;46792;38.854;-9.384;2023-02-24T05:27:54;3.75;;;1.55;;
60917;SDS011;46792;38.854;-9.384;2023-02-24T05:29:55;8.40;;;2.20;;
60917;SDS011;46792;38.854;-9.384;2023-02-24T05:31:56;3.03;;;1.42;;
60917;SDS011;46792;38.854;-9.384;2023-02-24T05:34:02;6.30;;;1.85;;
60917;SDS011;46792;38.854;-9.384;2023-02-24T05:36:06;4.57;;;1.40;;
60917;SDS011;46792;38.854;-9.384;2023-02-24T05:38:08;6.03;;;1.80;;
60917;SDS011;46792;38.854;-9.384;2023-02-24T05:40:09;5.60;;;1.92;;
60917;SDS011;46792;38.854;-9.384;2023-02-24T05:42:12;2.55;;;1.33;;
60917;SDS011;46792;38.854;-9.384;2023-02-24T05:44:14;6.03;;;2.17;;
60917;SDS011;46792;38.854;-9.384;2023-02-24T05:46:16;5.10;;;1.52;;
60917;SDS011;46792;38.854;-9.384;2023-02-24T05:48:16;3.15;;;1.30;;
60917;SDS011;46792;38.854;-9.384;2023-02-24T05:50:18;2.47;;;1.42;;
60917;SDS011;46792;38.854;-9.384;2023-02-24T05:52:25;2.40;;;1.60;;
60917;SDS011;46792;38.854;-9.384;2023-02-24T05:54:30;3.70;;;1.98;;
60917;SDS011;46792;38.854;-9.384;2023-02-24T05:56:34;2.33;;;1.40;;
60917;SDS011;46792;38.854;-9.384;2023-02-24T05:58:57;5.60;;;2.15;;
60917;SDS011;46792;38.854;-9.384;2023-02-24T06:03:08;3.33;;;1.73;;
60917;SDS011;46792;38.854;-9.384;2023-02-24T06:05:27;3.83;;;1.50;;
60917;SDS011;46792;38.854;-9.384;2023-02-24T06:07:29;4.85;;;1.98;;
60917;SDS011;46792;38.854;-9.384;2023-02-24T06:09:33;5.32;;;2.25;;
60917;SDS011;46792;38.854;-9.384;2023-02-24T06:11:53;4.53;;;1.92;;
60917;SDS011;46792;38.854;-9.384;2023-02-24T06:14:11;5.95;;;2.63;;
60917;SDS011;46792;38.854;-9.384;2023-02-24T06:16:13;6.55;;;2.15;;
60917;SDS011;46792;38.854;-9.384;2023-02-24T06:18:15;2.63;;;1.73;;
60917;SDS011;46792;38.854;-9.384;2023-02-24T06:20:35;4.72;;;1.98;;
60917;SDS011;46792;38.854;-9.384;2023-02-24T06:22:36;2.15;;;1.95;;
60917;SDS011;46792;38.854;-9.384;2023-02-24T06:26:48;3.28;;;1.17;;
60917;SDS011;46792;38.854;-9.384;2023-02-24T06:28:52;1.77;;;1.30;;
60917;SDS011;46792;38.854;-9.384;2023-02-24T06:30:53;2.60;;;1.60;;
60917;SDS011;46792;38.854;-9.384;2023-02-24T06:32:55;10.80;;;1.80;;
60917;SDS011;46792;38.854;-9.384;2023-02-24T06:34:56;8.35;;;1.77;;
60917;SDS011;46792;38.854;-9.384;2023-02-24T06:36:58;5.40;;;1.80;;
60917;SDS011;46792;38.854;-9.384;2023-02-24T06:38:59;8.85;;;1.88;;
60917;SDS011;46792;38.854;-9.384;2023-02-24T06:41:18;4.97;;;1.60;;
60917;SDS011;46792;38.854;-9.384;2023-02-24T06:43:18;5.90;;;1.73;;
60917;SDS011;46792;38.854;-9.384;2023-02-24T06:45:19;7.80;;;2.20;;
60917;SDS011;46792;38.854;-9.384;2023-02-24T06:47:21;4.88;;;1.70;;
60917;SDS011;46792;38.854;-9.384;2023-02-24T06:49:22;11.82;;;2.30;;
60917;SDS011;46792;38.854;-9.384;2023-02-24T06:51:24;7.00;;;2.45;;
60917;SDS011;46792;38.854;-9.384;2023-02-24T06:53:29;4.13;;;2.20;;
60917;SDS011;46792;38.854;-9.384;2023-02-24T06:57:35;3.70;;;1.90;;
60917;SDS011;46792;38.854;-9.384;2023-02-24T06:59:35;10.95;;;1.70;;
60917;SDS011;46792;38.854;-9.384;2023-02-24T07:01:37;3.13;;;2.40;;
60917;SDS011;46792;38.854;-9.384;2023-02-24T07:03:45;5.00;;;3.03;;
60917;SDS011;46792;38.854;-9.384;2023-02-24T07:06:01;5.45;;;2.22;;
60917;SDS011;46792;38.854;-9.384;2023-02-24T07:08:23;4.85;;;1.80;;
60917;SDS011;46792;38.854;-9.384;2023-02-24T07:10:26;9.93;;;1.67;;
60917;SDS011;46792;38.854;-9.384;2023-02-24T07:12:26;3.00;;;1.73;;
60917;SDS011;46792;38.854;-9.384;2023-02-24T07:14:28;5.15;;;2.20;;
60917;SDS011;46792;38.854;-9.384;2023-02-24T07:16:32;1.80;;;1.55;;
60917;SDS011;46792;38.854;-9.384;2023-02-24T07:18:34;7.03;;;1.83;;
60917;SDS011;46792;38.854;-9.384;2023-02-24T07:20:36;4.88;;;2.05;;
60917;SDS011;46792;38.854;-9.384;2023-02-24T07:23:03;7.30;;;2.08;;
60917;SDS011;46792;38.854;-9.384;2023-02-24T07:25:04;6.28;;;3.40;;
60917;SDS011;46792;38.854;-9.384;2023-02-24T07:27:11;14.50;;;5.85;;
60917;SDS011;46792;38.854;-9.384;2023-02-24T07:29:21;8.73;;;5.43;;
60917;SDS011;46792;38.854;-9.384;2023-02-24T07:31:23;7.70;;;4.88;;
60917;SDS011;46792;38.854;-9.384;2023-02-24T07:33:24;4.13;;;2.40;;
60917;SDS011;46792;38.854;-9.384;2023-02-24T07:35:25;6.55;;;4.15;;
60917;SDS011;46792;38.854;-9.384;2023-02-24T07:37:25;4.22;;;3.08;;
60917;SDS011;46792;38.854;-9.384;2023-02-24T07:41:31;2.80;;;2.60;;
60917;SDS011;46792;38.854;-9.384;2023-02-24T07:43:35;4.72;;;2.58;;
60917;SDS011;46792;38.854;-9.384;2023-02-24T07:45:36;9.88;;;3.33;;
60917;SDS011;46792;38.854;-9.384;2023-02-24T07:47:37;3.10;;;1.90;;
60917;SDS011;46792;38.854;-9.384;2023-02-24T07:49:38;8.90;;;2.25;;
60917;SDS011;46792;38.854;-9.384;2023-02-24T07:51:40;10.57;;;1.83;;
60917;SDS011;46792;38.854;-9.384;2023-02-24T07:53:48;5.95;;;1.83;;
60917;SDS011;46792;38.854;-9.384;2023-02-24T07:55:55;1.00;;;0.98;;
60917;SDS011;46792;38.854;-9.384;2023-02-24T07:57:56;2.38;;;1.25;;
60917;SDS011;46792;38.854;-9.384;2023-02-24T07:59:56;2.63;;;1.38;;
60917;SDS011;46792;38.854;-9.384;2023-02-24T08:01:59;5.43;;;1.52;;
60917;SDS011;46792;38.854;-9.384;2023-02-24T08:04:04;4.85;;;1.60;;
60917;SDS011;46792;38.854;-9.384;2023-02-24T08:06:11;2.63;;;1.30;;
60917;SDS011;46792;38.854;-9.384;2023-02-24T08:08:14;4.95;;;1.27;;
60917;SDS011;46792;38.854;-9.384;2023-02-24T08:10:20;10.65;;;1.70;;
60917;SDS011;46792;38.854;-9.384;2023-02-24T08:12:23;5.38;;;2.28;;
60917;SDS011;46792;38.854;-9.384;2023-02-24T08:14:27;4.75;;;1.90;;
60917;SDS011;46792;38.854;-9.384;2023-02-24T08:16:45;6.13;;;1.73;;
60917;SDS011;46792;38.854;-9.384;2023-02-24T08:18:47;2.70;;;1.52;;
60917;SDS011;46792;38.854;-9.384;2023-02-24T08:20:48;5.60;;;1.30;;
60917;SDS011;46792;38.854;-9.384;2023-02-24T08:22:52;4.30;;;1.40;;
60917;SDS011;46792;38.854;-9.384;2023-02-24T08:24:56;4.80;;;1.73;;
60917;SDS011;46792;38.854;-9.384;2023-02-24T08:27:04;3.35;;;2.33;;
60917;SDS011;46792;38.854;-9.384;2023-02-24T08:29:05;5.90;;;2.33;;
60917;SDS011;46792;38.854;-9.384;2023-02-24T08:31:06;3.92;;;2.33;;
60917;SDS011;46792;38.854;-9.384;2023-02-24T08:33:08;8.05;;;2.10;;
60917;SDS011;46792;38.854;-9.384;2023-02-24T08:35:17;10.65;;;2.42;;
60917;SDS011;46792;38.854;-9.384;2023-02-24T08:37:23;4.65;;;2.47;;
60917;SDS011;46792;38.854;-9.384;2023-02-24T08:39:24;6.00;;;2.63;;
60917;SDS011;46792;38.854;-9.384;2023-02-24T08:43:44;3.13;;;2.80;;
60917;SDS011;46792;38.854;-9.384;2023-02-24T08:45:46;3.63;;;3.17;;
60917;SDS011;46792;38.854;-9.384;2023-02-24T08:47:59;16.57;;;7.93;;
60917;SDS011;46792;38.854;-9.384;2023-02-24T08:50:12;8.23;;;2.90;;
60917;SDS011;46792;38.854;-9.384;2023-02-24T08:52:13;9.55;;;4.60;;
60917;SDS011;46792;38.854;-9.384;2023-02-24T08:54:15;15.32;;;8.80;;
60917;SDS011;46792;38.854;-9.384;2023-02-24T08:56:19;11.10;;;3.30;;
60917;SDS011;46792;38.854;-9.384;2023-02-24T08:58:25;9.60;;;5.60;;
60917;SDS011;46792;38.854;-9.384;2023-02-24T09:00:29;11.68;;;2.42;;
60917;SDS011;46792;38.854;-9.384;2023-02-24T09:02:50;15.68;;;3.33;;
60917;SDS011;46792;38.854;-9.384;2023-02-24T09:04:56;23.98;;;4.90;;
60917;SDS011;46792;38.854;-9.384;2023-02-24T09:06:58;8.15;;;3.03;;
60917;SDS011;46792;38.854;-9.384;2023-02-24T09:09:01;7.43;;;2.08;;
60917;SDS011;46792;38.854;-9.384;2023-02-24T09:11:20;11.25;;;2.60;;
60917;SDS011;46792;38.854;-9.384;2023-02-24T09:13:21;19.60;;;5.32;;
60917;SDS011;46792;38.854;-9.384;2023-02-24T09:15:22;24.42;;;3.08;;
60917;SDS011;46792;38.854;-9.384;2023-02-24T09:17:25;13.60;;;2.90;;
60917;SDS011;46792;38.854;-9.384;2023-02-24T09:19:50;8.55;;;2.72;;
60917;SDS011;46792;38.854;-9.384;2023-02-24T09:21:50;14.05;;;3.10;;
60917;SDS011;46792;38.854;-9.384;2023-02-24T09:23:51;8.02;;;2.13;;
60917;SDS011;46792;38.854;-9.384;2023-02-24T09:25:52;7.10;;;2.83;;
60917;SDS011;46792;38.854;-9.384;2023-02-24T09:27:54;6.53;;;2.15;;
60917;SDS011;46792;38.854;-9.384;2023-02-24T09:30:08;2.38;;;1.65;;
60917;SDS011;46792;38.854;-9.384;2023-02-24T09:32:24;8.07;;;2.03;;
60917;SDS011;46792;38.854;-9.384;2023-02-24T09:34:27;10.15;;;2.70;;
60917;SDS011;46792;38.854;-9.384;2023-02-24T09:36:29;5.13;;;2.30;;
60917;SDS011;46792;38.854;-9.384;2023-02-24T09:38:30;2.95;;;2.05;;
60917;SDS011;46792;38.854;-9.384;2023-02-24T09:40:52;6.78;;;2.17;;
60917;SDS011;46792;38.854;-9.384;2023-02-24T09:42:53;9.50;;;1.80;;
60917;SDS011;46792;38.854;-9.384;2023-02-24T09:45:03;6.00;;;1.70;;
60917;SDS011;46792;38.854;-9.384;2023-02-24T09:47:31;11.52;;;2.08;;
60917;SDS011;46792;38.854;-9.384;2023-02-24T09:52:20;6.75;;;1.85;;
60917;SDS011;46792;38.854;-9.384;2023-02-24T09:54:38;4.15;;;2.08;;
60917;SDS011;46792;38.854;-9.384;2023-02-24T09:57:21;6.82;;;1.50;;
60917;SDS011;46792;38.854;-9.384;2023-02-24T09:59:28;6.03;;;1.73;;
60917;SDS011;46792;38.854;-9.384;2023-02-24T10:03:42;6.15;;;2.33;;
60917;SDS011;46792;38.854;-9.384;2023-02-24T10:07:58;9.48;;;2.17;;
60917;SDS011;46792;38.854;-9.384;2023-02-24T10:10:02;8.65;;;1.65;;
60917;SDS011;46792;38.854;-9.384;2023-02-24T10:12:23;4.28;;;1.30;;
60917;SDS011;46792;38.854;-9.384;2023-02-24T10:17:32;6.15;;;1.90;;
60917;SDS011;46792;38.854;-9.384;2023-02-24T10:22:39;7.60;;;1.73;;
60917;SDS011;46792;38.854;-9.384;2023-02-24T10:24:50;5.68;;;1.40;;
60917;SDS011;46792;38.854;-9.384;2023-02-24T10:27:20;7.97;;;1.90;;
60917;SDS011;46792;38.854;-9.384;2023-02-24T10:31:44;11.75;;;1.90;;
60917;SDS011;46792;38.854;-9.384;2023-02-24T10:34:29;7.45;;;1.77;;
60917;SDS011;46792;38.854;-9.384;2023-02-24T10:36:31;6.20;;;1.45;;
60917;SDS011;46792;38.854;-9.384;2023-02-24T10:38:36;14.88;;;1.33;;
60917;SDS011;46792;38.854;-9.384;2023-02-24T10:42:46;6.57;;;1.23;;
60917;SDS011;46792;38.854;-9.384;2023-02-24T10:44:50;4.82;;;1.80;;
60917;SDS011;46792;38.854;-9.384;2023-02-24T10:46:58;10.07;;;1.30;;
60917;SDS011;46792;38.854;-9.384;2023-02-24T10:49:28;6.18;;;1.40;;
60917;SDS011;46792;38.854;-9.384;2023-02-24T10:51:30;3.03;;;1.30;;
60917;SDS011;46792;38.854;-9.384;2023-02-24T10:53:36;2.97;;;1.10;;
60917;SDS011;46792;38.854;-9.384;2023-02-24T10:55:38;9.82;;;1.67;;
60917;SDS011;46792;38.854;-9.384;2023-02-24T10:57:44;8.50;;;1.30;;
60917;SDS011;46792;38.854;-9.384;2023-02-24T10:59:59;9.23;;;1.20;;
60917;SDS011;46792;38.854;-9.384;2023-02-24T11:04:29;8.38;;;1.27;;
60917;SDS011;46792;38.854;-9.384;2023-02-24T11:07:03;15.77;;;2.40;;
60917;SDS011;46792;38.854;-9.384;2023-02-24T11:09:15;4.18;;;1.50;;
60917;SDS011;46792;38.854;-9.384;2023-02-24T11:11:46;12.55;;;2.75;;
60917;SDS011;46792;38.854;-9.384;2023-02-24T11:14:13;2.67;;;1.20;;
60917;SDS011;46792;38.854;-9.384;2023-02-24T11:16:43;1.92;;;1.02;;
60917;SDS011;46792;38.854;-9.384;2023-02-24T11:19:15;2.65;;;1.05;;
60917;SDS011;46792;38.854;-9.384;2023-02-24T11:21:17;7.68;;;1.88;;
60917;SDS011;46792;38.854;-9.384;2023-02-24T11:23:20;11.57;;;1.52;;
60917;SDS011;46792;38.854;-9.384;2023-02-24T11:25:25;4.32;;;1.10;;
60917;SDS011;46792;38.854;-9.384;2023-02-24T11:27:34;5.60;;;1.50;;
60917;SDS011;46792;38.854;-9.384;2023-02-24T11:29:47;3.42;;;1.25;;
60917;SDS011;46792;38.854;-9.384;2023-02-24T11:39:11;0.90;;;0.82;;
60917;SDS011;46792;38.854;-9.384;2023-02-24T11:41:26;2.10;;;0.98;;
60917;SDS011;46792;38.854;-9.384;2023-02-24T11:43:32;0.70;;;0.70;;
60917;SDS011;46792;38.854;-9.384;2023-02-24T11:45:40;3.22;;;0.90;;
60917;SDS011;46792;38.854;-9.384;2023-02-24T11:47:47;7.20;;;1.83;;
60917;SDS011;46792;38.854;-9.384;2023-02-24T11:50:25;5.45;;;1.30;;
60917;SDS011;46792;38.854;-9.384;2023-02-24T11:52:36;7.13;;;1.15;;
60917;SDS011;46792;38.854;-9.384;2023-02-24T11:56:57;2.38;;;1.02;;
60917;SDS011;46792;38.854;-9.384;2023-02-24T12:01:31;1.20;;;0.95;;
60917;SDS011;46792;38.854;-9.384;2023-02-24T12:06:15;2.97;;;0.90;;
60917;SDS011;46792;38.854;-9.384;2023-02-24T12:10:33;8.35;;;2.58;;
60917;SDS011;46792;38.854;-9.384;2023-02-24T12:14:47;10.65;;;2.63;;
60917;SDS011;46792;38.854;-9.384;2023-02-24T12:16:59;5.43;;;2.25;;
60917;SDS011;46792;38.854;-9.384;2023-02-24T12:21:06;7.65;;;1.23;;
60917;SDS011;46792;38.854;-9.384;2023-02-24T12:25:15;8.38;;;1.40;;
60917;SDS011;46792;38.854;-9.384;2023-02-24T12:27:30;3.85;;;1.00;;
60917;SDS011;46792;38.854;-9.384;2023-02-24T12:41:55;2.78;;;1.10;;
60917;SDS011;46792;38.854;-9.384;2023-02-24T12:46:30;9.45;;;1.10;;
60917;SDS011;46792;38.854;-9.384;2023-02-24T12:53:25;6.32;;;1.67;;
60917;SDS011;46792;38.854;-9.384;2023-02-24T13:01:31;3.53;;;1.42;;
60917;SDS011;46792;38.854;-9.384;2023-02-24T13:03:49;4.57;;;1.00;;
60917;SDS011;46792;38.854;-9.384;2023-02-24T13:06:15;10.55;;;1.42;;
60917;SDS011;46792;38.854;-9.384;2023-02-24T13:11:16;2.40;;;1.00;;
60917;SDS011;46792;38.854;-9.384;2023-02-24T13:13:48;2.50;;;1.15;;
60917;SDS011;46792;38.854;-9.384;2023-02-24T13:15:59;6.10;;;1.27;;
60917;SDS011;46792;38.854;-9.384;2023-02-24T13:17:59;3.58;;;1.40;;
60917;SDS011;46792;38.854;-9.384;2023-02-24T13:20:08;8.88;;;1.48;;
60917;SDS011;46792;38.854;-9.384;2023-02-24T13:24:20;6.07;;;0.90;;
60917;SDS011;46792;38.854;-9.384;2023-02-24T13:26:23;3.15;;;0.82;;
60917;SDS011;46792;38.854;-9.384;2023-02-24T13:28:26;4.78;;;1.17;;
60917;SDS011;46792;38.854;-9.384;2023-02-24T13:30:42;14.93;;;2.28;;
60917;SDS011;46792;38.854;-9.384;2023-02-24T13:32:44;3.05;;;1.20;;
60917;SDS011;46792;38.854;-9.384;2023-02-24T13:34:46;3.20;;;1.48;;
60917;SDS011;46792;38.854;-9.384;2023-02-24T13:36:50;4.60;;;1.55;;
60917;SDS011;46792;38.854;-9.384;2023-02-24T13:43:31;8.23;;;1.67;;
60917;SDS011;46792;38.854;-9.384;2023-02-24T13:45:34;5.30;;;1.30;;
60917;SDS011;46792;38.854;-9.384;2023-02-24T13:51:52;5.50;;;1.17;;
60917;SDS011;46792;38.854;-9.384;2023-02-24T14:01:07;7.32;;;1.75;;
60917;SDS011;46792;38.854;-9.384;2023-02-24T14:03:10;5.05;;;1.38;;
60917;SDS011;46792;38.854;-9.384;2023-02-24T14:05:21;12.57;;;2.50;;
60917;SDS011;46792;38.854;-9.384;2023-02-24T14:07:31;4.32;;;1.17;;
60917;SDS011;46792;38.854;-9.384;2023-02-24T14:09:37;16.80;;;1.52;;
60917;SDS011;46792;38.854;-9.384;2023-02-24T14:11:42;5.13;;;1.35;;
60917;SDS011;46792;38.854;-9.384;2023-02-24T14:13:44;7.55;;;1.50;;
60917;SDS011;46792;38.854;-9.384;2023-02-24T14:15:47;9.82;;;2.10;;
60917;SDS011;46792;38.854;-9.384;2023-02-24T14:17:58;8.20;;;1.73;;
60917;SDS011;46792;38.854;-9.384;2023-02-24T14:20:20;5.95;;;1.30;;
60917;SDS011;46792;38.854;-9.384;2023-02-24T14:22:23;10.82;;;1.65;;
60917;SDS011;46792;38.854;-9.384;2023-02-24T14:24:25;2.53;;;1.48;;
60917;SDS011;46792;38.854;-9.384;2023-02-24T14:26:28;6.40;;;1.20;;
60917;SDS011;46792;38.854;-9.384;2023-02-24T14:28:40;4.35;;;1.50;;
60917;SDS011;46792;38.854;-9.384;2023-02-24T14:30:41;6.63;;;1.55;;
60917;SDS011;46792;38.854;-9.384;2023-02-24T14:32:42;2.45;;;1.20;;
60917;SDS011;46792;38.854;-9.384;2023-02-24T14:34:44;3.03;;;1.13;;
60917;SDS011;46792;38.854;-9.384;2023-02-24T14:36:46;3.00;;;1.40;;
60917;SDS011;46792;38.854;-9.384;2023-02-24T14:39:00;3.85;;;1.40;;
60917;SDS011;46792;38.854;-9.384;2023-02-24T14:41:24;3.90;;;1.38;;
60917;SDS011;46792;38.854;-9.384;2023-02-24T14:43:26;4.57;;;1.80;;
60917;SDS011;46792;38.854;-9.384;2023-02-24T14:45:28;2.60;;;1.40;;
60917;SDS011;46792;38.854;-9.384;2023-02-24T14:47:30;10.80;;;1.58;;
60917;SDS011;46792;38.854;-9.384;2023-02-24T14:49:33;7.80;;;2.28;;
60917;SDS011;46792;38.854;-9.384;2023-02-24T14:51:34;3.45;;;1.95;;
60917;SDS011;46792;38.854;-9.384;2023-02-24T14:53:37;9.88;;;1.70;;
60917;SDS011;46792;38.854;-9.384;2023-02-24T14:55:45;2.70;;;1.40;;
60917;SDS011;46792;38.854;-9.384;2023-02-24T14:57:54;1.30;;;1.02;;
60917;SDS011;46792;38.854;-9.384;2023-02-24T15:00:11;6.53;;;3.28;;
60917;SDS011;46792;38.854;-9.384;2023-02-24T15:02:24;7.82;;;3.85;;